Time;durP1;ratioP1;P1;durP2;ratioP2;P2;SDS_P1;SDS_P2;PMS_P1;PMS_P2;Temp;Humidity;BMP_temperature;BMP_pressure;BME280_temperature;BME280_humidity;BME280_pressure;Samples;Min_cycle;Max_cycle;Signal;HPM_P1;HPM_P2
2023/12/05 00:01:53;;;;;;;;;;;0.60;99.90;;;;;;5077076;28;19924;-79
2023/12/05 00:04:19;;;;;;;;;;;1.60;99.90;;;;;;5079131;28;19928;-81
2023/12/05 00:06:45;;;;;;;;;;;0.60;99.90;;;;;;5075592;28;19930;-85
2023/12/05 00:09:11;;;;;;;;;;;2.20;99.90;;;;;;5066201;28;19927;-83
2023/12/05 00:11:39;;;;;;;;;;;2.30;99.90;;;;;;5078124;28;19935;-83
2023/12/05 00:14:04;;;;;;;;;;;0.60;99.90;;;;;;5069340;28;19928;-82
2023/12/05 00:16:30;;;;;;;;;;;0.60;99.90;;;;;;5076334;28;19934;-81
2023/12/05 00:18:56;;;;;;;;;;;1.70;99.90;;;;;;5061402;28;19939;-84
2023/12/05 00:21:21;;;;;;;;;;;0.60;99.90;;;;;;5073054;28;19931;-82
2023/12/05 00:23:47;;;;;;;;;;;0.90;99.90;;;;;;5045993;28;19936;-79
2023/12/05 00:26:13;;;;;;;;;;;0.60;99.90;;;;;;5061965;28;19942;-80
2023/12/05 00:28:38;;;;;;;;;;;0.60;99.90;;;;;;5075792;28;19928;-82
2023/12/05 00:31:04;;;;;;;;;;;1.90;99.90;;;;;;5077382;28;19934;-81
2023/12/05 00:33:30;;;;;;;;;;;0.60;99.90;;;;;;5082240;28;20286;-77
2023/12/05 00:35:55;;;;;;;;;;;1.20;99.90;;;;;;5082579;28;19984;-80
2023/12/05 00:38:21;;;;;;;;;;;2.20;99.90;;;;;;5061722;28;20560;-85
2023/12/05 00:40:47;;;;;;;;;;;0.60;99.90;;;;;;5064501;28;19931;-82
2023/12/05 00:43:12;;;;;;;;;;;0.70;99.90;;;;;;5060129;28;20057;-76
2023/12/05 00:45:38;;;;;;;;;;;0.50;99.90;;;;;;5074731;28;20290;-78
2023/12/05 00:48:04;;;;;;;;;;;2.30;99.90;;;;;;5080214;28;20357;-76
2023/12/05 00:50:30;;;;;;;;;;;0.60;99.90;;;;;;5058209;28;19932;-75
2023/12/05 00:52:55;;;;;;;;;;;0.60;99.90;;;;;;5094469;28;19962;-76
2023/12/05 00:55:21;;;;;;;;;;;0.60;99.90;;;;;;5063333;28;20021;-78
2023/12/05 00:57:46;;;;;;;;;;;0.50;99.90;;;;;;5059138;28;19939;-76
2023/12/05 01:00:13;;;;;;;;;;;0.50;99.90;;;;;;5073858;28;19935;-77
2023/12/05 01:02:39;;;;;;;;;;;0.50;99.90;;;;;;5064419;28;19928;-75
2023/12/05 01:05:08;;;;;;;;;;;1.30;99.90;;;;;;5059398;28;19924;-80
2023/12/05 01:07:34;;;;;;;;;;;0.50;99.90;;;;;;5075235;28;19928;-75
2023/12/05 01:10:00;;;;;;;;;;;0.50;99.90;;;;;;5074989;28;19955;-86
2023/12/05 01:12:26;;;;;;;;;;;2.20;99.90;;;;;;5072835;28;20069;-86
2023/12/05 01:14:51;;;;;;;;;;;0.50;99.90;;;;;;5078718;28;19928;-82
2023/12/05 01:17:17;;;;;;;;;;;0.50;99.90;;;;;;5060225;28;19988;-82
2023/12/05 01:19:43;;;;;;;;;;;0.50;99.90;;;;;;5047472;28;19928;-83
2023/12/05 01:22:08;;;;;;;;;;;0.50;99.90;;;;;;5074448;28;20027;-85
2023/12/05 01:24:34;;;;;;;;;;;1.30;99.90;;;;;;5062689;28;19959;-80
2023/12/05 01:27:02;;;;;;;;;;;0.50;99.90;;;;;;5073867;28;19970;-83
2023/12/05 01:29:28;;;;;;;;;;;0.50;99.90;;;;;;5078272;28;20550;-82
2023/12/05 01:31:53;;;;;;;;;;;0.50;99.90;;;;;;5047139;28;19928;-83
2023/12/05 01:34:19;;;;;;;;;;;0.80;99.90;;;;;;5077991;28;19932;-83
2023/12/05 01:36:45;;;;;;;;;;;2.30;99.90;;;;;;5061246;28;19955;-84
2023/12/05 01:39:13;;;;;;;;;;;0.50;99.90;;;;;;5063376;28;20450;-85
2023/12/05 01:41:41;;;;;;;;;;;0.50;99.90;;;;;;5059997;28;19932;-85
2023/12/05 01:44:06;;;;;;;;;;;0.50;99.90;;;;;;5079248;28;19996;-84
2023/12/05 01:46:32;;;;;;;;;;;1.30;99.90;;;;;;5074757;28;19984;-84
2023/12/05 01:48:58;;;;;;;;;;;0.50;99.90;;;;;;5057766;28;19974;-86
2023/12/05 01:51:24;;;;;;;;;;;0.50;99.90;;;;;;5061719;28;20693;-81
2023/12/05 01:53:51;;;;;;;;;;;0.50;99.90;;;;;;5091456;28;19928;-80
2023/12/05 01:56:17;;;;;;;;;;;0.50;99.90;;;;;;5059895;28;19967;-82
2023/12/05 01:58:44;;;;;;;;;;;0.70;99.90;;;;;;5064849;28;19928;-80
2023/12/05 02:01:12;;;;;;;;;;;2.50;99.90;;;;;;5077638;28;19932;-83
2023/12/05 02:03:39;;;;;;;;;;;1.60;99.90;;;;;;5057205;28;20004;-84
2023/12/05 02:06:05;;;;;;;;;;;0.50;99.90;;;;;;5059262;28;20022;-82
2023/12/05 02:08:32;;;;;;;;;;;1.50;99.90;;;;;;5047326;28;20362;-81
2023/12/05 02:10:57;;;;;;;;;;;0.40;99.90;;;;;;5056343;28;20499;-81
2023/12/05 02:13:23;;;;;;;;;;;1.80;99.90;;;;;;5062789;28;20401;-83
2023/12/05 02:15:53;;;;;;;;;;;0.40;99.90;;;;;;5061141;28;19928;-82
2023/12/05 02:18:22;;;;;;;;;;;0.50;99.90;;;;;;5065477;28;20646;-88
2023/12/05 02:20:54;;;;;;;;;;;0.50;99.90;;;;;;5071972;28;19924;-82
2023/12/05 02:23:38;;;;;;;;;;;0.40;99.90;;;;;;5064489;28;19928;-83
2023/12/05 02:26:13;;;;;;;;;;;0.40;99.90;;;;;;5073701;28;19993;-80
2023/12/05 02:28:39;;;;;;;;;;;-0.40;99.90;;;;;;5062122;28;19927;-78
2023/12/05 02:31:05;;;;;;;;;;;0.40;99.90;;;;;;5060625;28;19928;-82
2023/12/05 02:33:31;;;;;;;;;;;0.40;99.90;;;;;;5059429;28;19927;-78
2023/12/05 02:36:20;;;;;;;;;;;2.20;99.90;;;;;;5076048;28;19976;-78
2023/12/05 02:38:59;;;;;;;;;;;0.40;99.90;;;;;;5055503;28;19924;-78
2023/12/05 02:41:28;;;;;;;;;;;0.40;99.90;;;;;;5091965;28;20125;-85
2023/12/05 02:44:08;;;;;;;;;;;1.70;99.90;;;;;;5057694;28;20787;-84
2023/12/05 02:46:36;;;;;;;;;;;0.30;99.90;;;;;;5073780;28;20001;-79
2023/12/05 02:49:03;;;;;;;;;;;0.40;99.90;;;;;;5061972;28;19931;-79
2023/12/05 02:51:28;;;;;;;;;;;2.10;99.90;;;;;;5090332;28;20530;-79
2023/12/05 02:54:01;;;;;;;;;;;0.30;99.90;;;;;;5074284;28;19933;-79
2023/12/05 02:56:27;;;;;;;;;;;0.40;99.90;;;;;;5072015;28;20303;-80
2023/12/05 02:58:53;;;;;;;;;;;1.60;99.90;;;;;;5043400;28;19971;-80
2023/12/05 03:01:18;;;;;;;;;;;2.00;99.90;;;;;;5042592;28;19997;-82
2023/12/05 03:03:44;;;;;;;;;;;1.60;99.90;;;;;;5059300;28;20644;-86
2023/12/05 03:06:10;;;;;;;;;;;0.30;99.90;;;;;;5073715;28;19928;-80
2023/12/05 03:08:35;;;;;;;;;;;0.30;99.90;;;;;;5059365;28;19994;-85
2023/12/05 03:11:02;;;;;;;;;;;1.70;99.90;;;;;;5073324;28;20414;-79
2023/12/05 03:13:27;;;;;;;;;;;0.40;99.90;;;;;;5060069;28;19934;-81
2023/12/05 03:15:58;;;;;;;;;;;1.60;99.90;;;;;;5170810;27;19926;-75
2023/12/05 03:18:24;;;;;;;;;;;0.30;99.90;;;;;;5044728;27;1982385;-75
2023/12/05 03:20:49;;;;;;;;;;;0.30;99.90;;;;;;5125645;27;19955;-75
2023/12/05 03:23:18;;;;;;;;;;;0.30;99.90;;;;;;5110102;27;20524;-75
2023/12/05 03:25:44;;;;;;;;;;;0.30;99.90;;;;;;5126678;27;20366;-75
2023/12/05 03:28:09;;;;;;;;;;;0.30;99.90;;;;;;5131033;27;19938;-75
2023/12/05 03:30:35;;;;;;;;;;;0.30;99.90;;;;;;5129948;27;19996;-75
2023/12/05 03:33:01;;;;;;;;;;;0.30;99.90;;;;;;5139632;27;19934;-75
2023/12/05 03:35:26;;;;;;;;;;;2.10;99.90;;;;;;5110371;27;19918;-75
2023/12/05 03:37:52;;;;;;;;;;;0.50;99.90;;;;;;5123449;27;20011;-75
2023/12/05 03:40:18;;;;;;;;;;;0.70;99.90;;;;;;5129686;27;20357;-76
2023/12/05 03:42:43;;;;;;;;;;;0.60;99.90;;;;;;5115983;27;19970;-76
2023/12/05 03:45:09;;;;;;;;;;;0.80;99.90;;;;;;5128518;27;19931;-76
2023/12/05 03:47:34;;;;;;;;;;;0.30;99.90;;;;;;5121997;27;19935;-75
2023/12/05 03:50:00;;;;;;;;;;;0.30;99.90;;;;;;5125381;27;19972;-76
2023/12/05 03:52:26;;;;;;;;;;;1.20;99.90;;;;;;5123109;27;20893;-75
2023/12/05 03:54:51;;;;;;;;;;;0.90;99.90;;;;;;5121504;27;20649;-76
2023/12/05 03:57:17;;;;;;;;;;;0.30;99.90;;;;;;5121457;27;19927;-76
2023/12/05 03:59:44;;;;;;;;;;;2.00;99.90;;;;;;5129211;27;20274;-76
2023/12/05 04:02:10;;;;;;;;;;;0.30;99.90;;;;;;5115790;27;19974;-76
2023/12/05 04:04:35;;;;;;;;;;;0.70;99.90;;;;;;5117868;27;19939;-76
2023/12/05 04:07:01;;;;;;;;;;;0.30;99.90;;;;;;5125111;27;20515;-76
2023/12/05 04:09:27;;;;;;;;;;;0.30;99.90;;;;;;5122210;27;19927;-76
2023/12/05 04:11:52;;;;;;;;;;;0.30;99.90;;;;;;5113555;27;19975;-75
2023/12/05 04:14:18;;;;;;;;;;;1.30;99.90;;;;;;5115238;27;19949;-75
2023/12/05 04:16:44;;;;;;;;;;;0.20;99.90;;;;;;5124703;27;19932;-75
2023/12/05 04:19:09;;;;;;;;;;;0.20;99.90;;;;;;5113968;27;19919;-75
2023/12/05 04:21:35;;;;;;;;;;;0.30;99.90;;;;;;5125969;27;19927;-75
2023/12/05 04:24:00;;;;;;;;;;;0.30;99.90;;;;;;5117427;27;19934;-75
2023/12/05 04:26:26;;;;;;;;;;;0.70;99.90;;;;;;5095802;27;20010;-75
2023/12/05 04:28:52;;;;;;;;;;;0.20;99.90;;;;;;5109406;27;20241;-75
2023/12/05 04:31:18;;;;;;;;;;;0.20;99.90;;;;;;5107909;27;19935;-75
2023/12/05 04:33:44;;;;;;;;;;;1.90;99.90;;;;;;5117317;27;20396;-74
2023/12/05 04:36:10;;;;;;;;;;;0.20;99.90;;;;;;5099592;27;19919;-76
2023/12/05 04:38:36;;;;;;;;;;;0.20;99.90;;;;;;5099884;27;19931;-75
2023/12/05 04:41:02;;;;;;;;;;;0.30;99.90;;;;;;5107462;27;20509;-76
2023/12/05 04:43:28;;;;;;;;;;;0.20;99.90;;;;;;5114343;27;19927;-75
2023/12/05 04:45:53;;;;;;;;;;;0.80;99.90;;;;;;5113329;27;20042;-76
2023/12/05 04:48:19;;;;;;;;;;;0.20;99.90;;;;;;5093766;27;19923;-74
2023/12/05 04:50:44;;;;;;;;;;;2.00;99.90;;;;;;5112765;27;19942;-74
2023/12/05 04:53:10;;;;;;;;;;;0.20;99.90;;;;;;5097865;27;19924;-76
2023/12/05 04:55:35;;;;;;;;;;;0.20;99.90;;;;;;5114147;27;19963;-76
2023/12/05 04:58:01;;;;;;;;;;;0.50;99.90;;;;;;5109812;27;19930;-75
2023/12/05 05:00:27;;;;;;;;;;;0.20;99.90;;;;;;5102871;27;20065;-76
2023/12/05 05:02:52;;;;;;;;;;;1.10;99.90;;;;;;5112450;27;20494;-76
2023/12/05 05:05:18;;;;;;;;;;;1.50;99.90;;;;;;5117644;27;19927;-76
2023/12/05 05:07:44;;;;;;;;;;;0.20;99.90;;;;;;5114535;27;19927;-76
2023/12/05 05:10:09;;;;;;;;;;;0.20;99.90;;;;;;5116191;27;20395;-74
2023/12/05 05:12:35;;;;;;;;;;;0.20;99.90;;;;;;5129233;27;20064;-76
2023/12/05 05:15:01;;;;;;;;;;;0.30;99.90;;;;;;5114457;27;19970;-75
2023/12/05 05:17:26;;;;;;;;;;;0.90;99.90;;;;;;5115847;27;19934;-75
2023/12/05 05:19:52;;;;;;;;;;;0.20;99.90;;;;;;5087171;27;19966;-75
2023/12/05 05:22:17;;;;;;;;;;;0.20;99.90;;;;;;5094370;27;19923;-75
2023/12/05 05:24:44;;;;;;;;;;;0.20;99.90;;;;;;5109361;27;21843;-76
2023/12/05 05:27:11;;;;;;;;;;;0.20;99.90;;;;;;5111207;27;19942;-75
2023/12/05 05:29:37;;;;;;;;;;;0.20;99.90;;;;;;5112065;27;19923;-76
2023/12/05 05:32:03;;;;;;;;;;;1.20;99.90;;;;;;5118625;27;19949;-75
2023/12/05 05:34:29;;;;;;;;;;;0.20;99.90;;;;;;5118739;27;20415;-75
2023/12/05 05:36:54;;;;;;;;;;;0.20;99.90;;;;;;5105989;27;19927;-76
2023/12/05 05:39:20;;;;;;;;;;;0.20;99.90;;;;;;5109777;27;19999;-76
2023/12/05 05:41:46;;;;;;;;;;;0.20;99.90;;;;;;5132286;27;19920;-75
2023/12/05 05:44:12;;;;;;;;;;;0.50;99.90;;;;;;5111249;27;20396;-75
2023/12/05 05:46:37;;;;;;;;;;;0.20;99.90;;;;;;5112107;27;19926;-75
2023/12/05 05:49:03;;;;;;;;;;;2.10;99.90;;;;;;5116012;27;19935;-75
2023/12/05 05:51:28;;;;;;;;;;;0.20;99.90;;;;;;5108795;27;19940;-75
2023/12/05 05:53:58;;;;;;;;;;;0.70;99.90;;;;;;5111909;27;20653;-75
2023/12/05 05:56:27;;;;;;;;;;;0.20;99.90;;;;;;5105670;27;19927;-75
2023/12/05 05:58:52;;;;;;;;;;;0.20;99.90;;;;;;5104527;27;19979;-75
2023/12/05 06:01:18;;;;;;;;;;;0.10;99.90;;;;;;5099774;27;20014;-75
2023/12/05 06:03:44;;;;;;;;;;;0.80;99.90;;;;;;5111048;27;19931;-75
2023/12/05 06:06:10;;;;;;;;;;;0.10;99.90;;;;;;5091952;27;19927;-75
2023/12/05 06:08:35;;;;;;;;;;;0.10;99.90;;;;;;5078423;27;19928;-75
2023/12/05 06:11:01;;;;;;;;;;;1.70;99.90;;;;;;5121874;27;19968;-75
2023/12/05 06:13:26;;;;;;;;;;;1.30;99.90;;;;;;5110348;27;20277;-75
2023/12/05 06:15:52;;;;;;;;;;;0.20;99.90;;;;;;5084883;27;19931;-75
2023/12/05 06:18:18;;;;;;;;;;;0.10;99.90;;;;;;5124433;27;19930;-75
2023/12/05 06:20:44;;;;;;;;;;;0.10;99.90;;;;;;5101502;27;20022;-75
2023/12/05 06:23:10;;;;;;;;;;;0.10;99.90;;;;;;5087959;27;20623;-75
2023/12/05 06:25:35;;;;;;;;;;;0.70;99.90;;;;;;5099686;27;20016;-75
2023/12/05 06:28:01;;;;;;;;;;;1.10;99.90;;;;;;5102207;27;19957;-75
2023/12/05 06:30:27;;;;;;;;;;;0.60;99.90;;;;;;5101356;27;19968;-75
2023/12/05 06:32:52;;;;;;;;;;;1.20;99.90;;;;;;5113504;27;20289;-75
2023/12/05 06:35:18;;;;;;;;;;;1.60;99.90;;;;;;5106219;27;20402;-74
2023/12/05 06:37:44;;;;;;;;;;;1.50;99.90;;;;;;5103594;27;19928;-75
2023/12/05 06:40:10;;;;;;;;;;;0.10;99.90;;;;;;5090637;27;19923;-74
2023/12/05 06:42:35;;;;;;;;;;;0.20;99.90;;;;;;5100317;27;20012;-75
2023/12/05 06:45:04;;;;;;;;;;;0.20;99.90;;;;;;5123633;27;19958;-75
2023/12/05 06:47:31;;;;;;;;;;;0.20;99.90;;;;;;5093839;27;21212;-75
2023/12/05 06:50:01;;;;;;;;;;;0.80;99.90;;;;;;5102028;27;20289;-75
2023/12/05 06:52:26;;;;;;;;;;;0.20;99.90;;;;;;5122968;27;19935;-75
2023/12/05 06:54:52;;;;;;;;;;;0.20;99.90;;;;;;5121355;27;20373;-74
2023/12/05 06:57:18;;;;;;;;;;;1.00;99.90;;;;;;5100870;27;20258;-75
2023/12/05 06:59:44;;;;;;;;;;;2.10;99.90;;;;;;5104618;27;20379;-76
2023/12/05 07:02:10;;;;;;;;;;;1.90;99.90;;;;;;5099854;27;19930;-75
2023/12/05 07:04:36;;;;;;;;;;;0.20;99.90;;;;;;5099879;27;19938;-75
2023/12/05 07:07:02;;;;;;;;;;;0.30;99.90;;;;;;5104969;27;20438;-75
2023/12/05 07:09:30;;;;;;;;;;;0.20;99.90;;;;;;5103660;27;19927;-75
2023/12/05 07:11:56;;;;;;;;;;;1.40;99.90;;;;;;5107065;27;19927;-75
2023/12/05 07:14:21;;;;;;;;;;;0.50;99.90;;;;;;5100767;27;19931;-75
2023/12/05 07:16:47;;;;;;;;;;;0.20;99.90;;;;;;5074298;27;19952;-75
2023/12/05 07:19:12;;;;;;;;;;;0.20;99.90;;;;;;5106620;27;19919;-75
2023/12/05 07:21:38;;;;;;;;;;;0.90;99.90;;;;;;5094038;27;19950;-75
2023/12/05 07:24:04;;;;;;;;;;;0.20;99.90;;;;;;5102585;27;19934;-76
2023/12/05 07:26:30;;;;;;;;;;;0.20;99.90;;;;;;5073935;27;20384;-75
2023/12/05 07:28:55;;;;;;;;;;;0.70;99.90;;;;;;5104389;27;19927;-75
2023/12/05 07:31:21;;;;;;;;;;;0.60;99.90;;;;;;5088754;27;20366;-75
2023/12/05 07:33:47;;;;;;;;;;;0.20;99.90;;;;;;5091293;27;19953;-75
2023/12/05 07:36:13;;;;;;;;;;;0.20;99.90;;;;;;5101540;27;19931;-75
2023/12/05 07:38:38;;;;;;;;;;;0.20;99.90;;;;;;5103868;27;19975;-75
2023/12/05 07:41:04;;;;;;;;;;;0.20;99.90;;;;;;5108957;27;20010;-75
2023/12/05 07:43:30;;;;;;;;;;;0.20;99.90;;;;;;5097023;27;19924;-75
2023/12/05 07:45:56;;;;;;;;;;;1.60;99.90;;;;;;5106361;27;19962;-75
2023/12/05 07:48:21;;;;;;;;;;;1.70;99.90;;;;;;5081026;27;19923;-76
2023/12/05 07:50:47;;;;;;;;;;;0.20;99.90;;;;;;5124380;27;20018;-75
2023/12/05 07:53:13;;;;;;;;;;;0.20;99.90;;;;;;5102848;27;19927;-75
2023/12/05 07:55:38;;;;;;;;;;;0.40;99.90;;;;;;5118951;27;19931;-75
2023/12/05 07:58:04;;;;;;;;;;;0.40;99.90;;;;;;5103224;27;19983;-75
2023/12/05 08:00:29;;;;;;;;;;;0.30;99.90;;;;;;5091190;27;19923;-75
2023/12/05 08:02:55;;;;;;;;;;;0.30;99.90;;;;;;5109114;27;19931;-75
2023/12/05 08:05:20;;;;;;;;;;;0.30;99.90;;;;;;5076393;27;19966;-75
2023/12/05 08:07:46;;;;;;;;;;;1.10;99.90;;;;;;5104615;27;19937;-75
2023/12/05 08:10:12;;;;;;;;;;;1.70;99.90;;;;;;5095731;27;19928;-75
2023/12/05 08:12:37;;;;;;;;;;;0.30;99.90;;;;;;5107674;27;19927;-76
2023/12/05 08:15:04;;;;;;;;;;;2.40;99.90;;;;;;5085788;27;19975;-74
2023/12/05 08:17:30;;;;;;;;;;;0.30;99.90;;;;;;5088603;27;19927;-74
2023/12/05 08:19:56;;;;;;;;;;;0.40;99.90;;;;;;5071303;27;19934;-75
2023/12/05 08:22:22;;;;;;;;;;;0.40;99.90;;;;;;5110633;27;20335;-75
2023/12/05 08:24:48;;;;;;;;;;;1.00;99.90;;;;;;5096502;27;20042;-75
2023/12/05 08:27:13;;;;;;;;;;;1.80;99.90;;;;;;5107962;27;19931;-75
2023/12/05 08:29:39;;;;;;;;;;;0.40;99.90;;;;;;5088659;27;20439;-74
2023/12/05 08:32:07;;;;;;;;;;;2.10;99.90;;;;;;5100737;27;19922;-75
2023/12/05 08:34:38;;;;;;;;;;;0.50;99.90;;;;;;5103250;27;19927;-76
2023/12/05 08:37:05;;;;;;;;;;;0.50;99.90;;;;;;5073766;27;19934;-75
2023/12/05 08:39:31;;;;;;;;;;;0.50;99.90;;;;;;5084630;27;19980;-75
2023/12/05 08:41:59;;;;;;;;;;;0.50;99.90;;;;;;5110938;27;19932;-74
2023/12/05 08:44:25;;;;;;;;;;;0.60;99.90;;;;;;5096044;27;20014;-75
2023/12/05 08:46:50;;;;;;;;;;;1.40;99.90;;;;;;5105687;27;20352;-76
2023/12/05 08:49:16;;;;;;;;;;;1.00;99.90;;;;;;5121391;27;19924;-75
2023/12/05 08:51:42;;;;;;;;;;;0.70;99.90;;;;;;5106154;27;19987;-75
2023/12/05 08:54:07;;;;;;;;;;;0.70;99.90;;;;;;5103229;27;19924;-76
2023/12/05 08:56:33;;;;;;;;;;;1.10;99.90;;;;;;5107998;27;19954;-76
2023/12/05 08:58:59;;;;;;;;;;;1.20;99.90;;;;;;5114154;27;19992;-75
2023/12/05 09:01:25;;;;;;;;;;;1.40;99.90;;;;;;5110989;27;20027;-75
2023/12/05 09:03:51;;;;;;;;;;;0.70;99.90;;;;;;5087737;27;19970;-76
2023/12/05 09:06:16;;;;;;;;;;;1.10;99.90;;;;;;5099586;27;20037;-75
2023/12/05 09:08:42;;;;;;;;;;;0.70;99.90;;;;;;5110101;27;19927;-75
2023/12/05 09:11:07;;;;;;;;;;;0.70;99.90;;;;;;5088659;27;19965;-76
2023/12/05 09:13:33;;;;;;;;;;;0.60;99.90;;;;;;5093270;27;20355;-75
2023/12/05 09:15:59;;;;;;;;;;;0.70;99.90;;;;;;5106425;27;19932;-76
2023/12/05 09:18:25;;;;;;;;;;;0.60;99.90;;;;;;5105713;27;20425;-75
2023/12/05 09:20:50;;;;;;;;;;;0.90;99.90;;;;;;5097247;27;19923;-75
2023/12/05 09:23:16;;;;;;;;;;;1.10;99.90;;;;;;5087777;27;20481;-75
2023/12/05 09:25:42;;;;;;;;;;;2.20;99.90;;;;;;5092895;27;19976;-75
2023/12/05 09:28:08;;;;;;;;;;;1.20;99.90;;;;;;5083184;27;19928;-75
2023/12/05 09:30:34;;;;;;;;;;;0.90;99.90;;;;;;5071505;27;19924;-75
2023/12/05 09:33:05;;;;;;;;;;;0.60;99.90;;;;;;5089487;27;20036;-74
2023/12/05 09:35:31;;;;;;;;;;;0.60;99.90;;;;;;5089898;27;19931;-75
2023/12/05 09:37:56;;;;;;;;;;;1.90;99.90;;;;;;5087108;27;19967;-76
2023/12/05 09:40:22;;;;;;;;;;;0.60;99.90;;;;;;5089187;27;19927;-76
2023/12/05 09:42:48;;;;;;;;;;;0.60;99.90;;;;;;5096680;27;19927;-76
2023/12/05 09:45:15;;;;;;;;;;;0.60;99.90;;;;;;5095975;27;19996;-75
2023/12/05 09:47:42;;;;;;;;;;;0.60;99.90;;;;;;5091890;27;19979;-74
2023/12/05 09:50:08;;;;;;;;;;;0.70;99.90;;;;;;5103747;27;20005;-74
2023/12/05 09:52:34;;;;;;;;;;;0.70;99.90;;;;;;5091791;27;19927;-75
2023/12/05 09:55:01;;;;;;;;;;;0.70;99.90;;;;;;5097627;27;19927;-75
2023/12/05 09:57:27;;;;;;;;;;;1.30;99.90;;;;;;5070293;27;19929;-78
2023/12/05 09:59:53;;;;;;;;;;;0.80;99.90;;;;;;5114724;27;19923;-75
2023/12/05 10:02:20;;;;;;;;;;;1.40;99.90;;;;;;5096080;27;19931;-75
2023/12/05 10:04:49;;;;;;;;;;;2.20;99.90;;;;;;5101752;27;19928;-73
2023/12/05 10:07:15;;;;;;;;;;;0.80;99.90;;;;;;5114095;27;19987;-75
2023/12/05 10:09:41;;;;;;;;;;;0.80;99.90;;;;;;5075664;27;20601;-74
2023/12/05 10:12:10;;;;;;;;;;;2.40;99.90;;;;;;5091551;27;19971;-75
2023/12/05 10:14:37;;;;;;;;;;;0.80;99.90;;;;;;5120399;27;19927;-75
2023/12/05 10:17:03;;;;;;;;;;;0.90;99.90;;;;;;5094631;27;19927;-75
2023/12/05 10:19:29;;;;;;;;;;;0.90;99.90;;;;;;5106854;27;19935;-75
2023/12/05 10:21:55;;;;;;;;;;;1.60;99.90;;;;;;5102668;27;20206;-76
2023/12/05 10:24:21;;;;;;;;;;;0.90;99.90;;;;;;5104937;27;19931;-75
2023/12/05 10:26:47;;;;;;;;;;;1.00;99.90;;;;;;5104100;27;19980;-75
2023/12/05 10:29:13;;;;;;;;;;;1.00;99.90;;;;;;5090972;27;19927;-75
2023/12/05 10:31:40;;;;;;;;;;;1.00;99.90;;;;;;5092522;27;19964;-75
2023/12/05 10:34:06;;;;;;;;;;;1.00;99.90;;;;;;5075274;27;20151;-75
2023/12/05 10:36:32;;;;;;;;;;;1.10;99.90;;;;;;5101695;27;19931;-75
2023/12/05 10:38:58;;;;;;;;;;;1.30;99.90;;;;;;5089727;27;19965;-75
2023/12/05 10:41:24;;;;;;;;;;;1.10;99.90;;;;;;5103840;27;19927;-75
2023/12/05 10:43:51;;;;;;;;;;;1.10;99.90;;;;;;5085120;27;19981;-75
2023/12/05 10:46:17;;;;;;;;;;;2.00;99.90;;;;;;5094790;27;19927;-75
2023/12/05 10:48:44;;;;;;;;;;;1.50;99.90;;;;;;5092462;27;19946;-74
2023/12/05 10:51:09;;;;;;;;;;;1.20;99.90;;;;;;5094700;27;19941;-75
2023/12/05 10:53:35;;;;;;;;;;;1.20;99.90;;;;;;5096364;27;19931;-75
2023/12/05 10:56:11;;;;;;;;;;;1.20;99.90;;;;;;5092190;27;20108;-75
2023/12/05 10:58:38;;;;;;;;;;;1.20;99.90;;;;;;5093922;27;19932;-75
2023/12/05 11:01:04;;;;;;;;;;;1.30;99.90;;;;;;5091100;27;19927;-75
2023/12/05 11:03:31;;;;;;;;;;;1.30;99.90;;;;;;5093788;27;19934;-75
2023/12/05 11:05:57;;;;;;;;;;;1.30;99.90;;;;;;5089955;27;20140;-75
2023/12/05 11:08:23;;;;;;;;;;;1.30;99.90;;;;;;5102829;27;20701;-75
2023/12/05 11:10:51;;;;;;;;;;;2.00;99.90;;;;;;5103644;27;19961;-75
2023/12/05 11:13:16;;;;;;;;;;;1.30;99.90;;;;;;5090075;27;19950;-74
2023/12/05 11:15:44;;;;;;;;;;;1.30;99.90;;;;;;5081412;27;20421;-76
2023/12/05 11:18:09;;;;;;;;;;;1.30;99.90;;;;;;5091912;27;19931;-75
2023/12/05 11:20:38;;;;;;;;;;;1.30;99.90;;;;;;5104648;27;19934;-75
2023/12/05 11:23:22;;;;;;;;;;;1.30;99.90;;;;;;5094737;27;19983;-75
2023/12/05 11:26:00;;;;;;;;;;;1.30;99.90;;;;;;5098937;27;19983;-74
2023/12/05 11:28:46;;;;;;;;;;;1.30;99.90;;;;;;5099219;27;20361;-75
2023/12/05 11:31:27;;;;;;;;;;;1.30;99.90;;;;;;5099716;27;19931;-75
2023/12/05 11:34:04;;;;;;;;;;;1.30;99.90;;;;;;5118492;27;20069;-74
2023/12/05 11:36:43;;;;;;;;;;;1.40;99.90;;;;;;5103542;27;19944;-75
2023/12/05 11:39:09;;;;;;;;;;;1.50;99.90;;;;;;5126039;27;20293;-75
2023/12/05 11:41:35;;;;;;;;;;;1.50;99.90;;;;;;5110615;27;19930;-75
2023/12/05 11:44:12;;;;;;;;;;;1.50;99.90;;;;;;5107735;27;20076;-75
2023/12/05 11:46:45;;;;;;;;;;;1.60;99.90;;;;;;5111020;27;19993;-75
2023/12/05 11:49:10;;;;;;;;;;;1.60;99.90;;;;;;5106571;27;20276;-74
2023/12/05 11:51:36;;;;;;;;;;;1.60;99.90;;;;;;5104744;27;19927;-74
2023/12/05 11:54:04;;;;;;;;;;;1.60;99.90;;;;;;5092319;27;20012;-73
2023/12/05 11:56:30;;;;;;;;;;;1.60;99.90;;;;;;5108853;27;19931;-73
2023/12/05 11:59:25;;;;;;;;;;;1.70;99.90;;;;;;5098664;27;19934;-73
2023/12/05 12:01:51;;;;;;;;;;;1.70;99.90;;;;;;5092466;27;20598;-73
2023/12/05 12:04:21;;;;;;;;;;;1.70;99.90;;;;;;5113471;27;19929;-73
2023/12/05 12:06:47;;;;;;;;;;;1.70;99.90;;;;;;5106462;27;20730;-73
2023/12/05 12:09:12;;;;;;;;;;;1.70;99.90;;;;;;5099392;27;20286;-73
2023/12/05 12:11:39;;;;;;;;;;;1.70;99.90;;;;;;5107742;27;19927;-74
2023/12/05 12:14:25;;;;;;;;;;;1.80;99.90;;;;;;5105406;27;19980;-75
2023/12/05 12:16:50;;;;;;;;;;;0.40;99.90;;;;;;5108684;27;19931;-74
2023/12/05 12:19:16;;;;;;;;;;;1.80;99.90;;;;;;5092735;27;19923;-73
2023/12/05 12:21:42;;;;;;;;;;;1.90;99.90;;;;;;5101083;27;20354;-73
2023/12/05 12:24:08;;;;;;;;;;;1.80;99.90;;;;;;5110110;27;20358;-74
2023/12/05 12:26:34;;;;;;;;;;;1.80;99.90;;;;;;5109810;27;20230;-74
2023/12/05 12:29:09;;;;;;;;;;;1.80;99.90;;;;;;5124864;27;19934;-75
2023/12/05 12:31:35;;;;;;;;;;;1.80;99.90;;;;;;5093595;27;19950;-75
2023/12/05 12:34:02;;;;;;;;;;;1.80;99.90;;;;;;5110641;27;20362;-75
2023/12/05 12:36:29;;;;;;;;;;;1.80;99.90;;;;;;5089059;27;19941;-73
2023/12/05 12:38:56;;;;;;;;;;;2.20;99.90;;;;;;5106370;27;20701;-73
2023/12/05 12:41:21;;;;;;;;;;;1.80;99.90;;;;;;5105484;27;19959;-73
2023/12/05 12:43:47;;;;;;;;;;;1.80;99.90;;;;;;5105404;27;20370;-73
2023/12/05 12:46:13;;;;;;;;;;;2.20;99.90;;;;;;5110647;27;20045;-73
2023/12/05 12:48:39;;;;;;;;;;;1.80;99.90;;;;;;5101005;27;20341;-73
2023/12/05 12:51:06;;;;;;;;;;;1.70;99.90;;;;;;5113453;27;20045;-73
2023/12/05 12:53:32;;;;;;;;;;;-0.10;99.90;;;;;;5112945;27;20323;-74
2023/12/05 12:55:57;;;;;;;;;;;1.70;99.90;;;;;;5109028;27;19923;-73
2023/12/05 12:58:33;;;;;;;;;;;2.20;99.90;;;;;;5095774;27;19972;-73
2023/12/05 13:00:58;;;;;;;;;;;1.70;99.90;;;;;;5110050;27;20370;-73
2023/12/05 13:03:24;;;;;;;;;;;1.70;99.90;;;;;;5107299;27;19923;-73
2023/12/05 13:05:51;;;;;;;;;;;2.50;99.90;;;;;;5098805;27;19930;-74
2023/12/05 13:08:17;;;;;;;;;;;1.70;99.90;;;;;;5087325;27;19939;-75
2023/12/05 13:10:43;;;;;;;;;;;1.70;99.90;;;;;;5073279;27;19979;-74
2023/12/05 13:13:10;;;;;;;;;;;1.70;99.90;;;;;;5095974;27;19928;-74
2023/12/05 13:15:36;;;;;;;;;;;1.70;99.90;;;;;;5053154;27;20324;-74
2023/12/05 13:18:03;;;;;;;;;;;1.70;99.90;;;;;;5073045;27;20385;-74
2023/12/05 13:20:30;;;;;;;;;;;1.70;99.90;;;;;;5093083;27;19952;-74
2023/12/05 13:22:56;;;;;;;;;;;1.70;99.90;;;;;;5091363;27;20479;-73
2023/12/05 13:25:22;;;;;;;;;;;3.00;99.90;;;;;;5088796;27;20041;-74
2023/12/05 13:27:49;;;;;;;;;;;1.60;99.90;;;;;;5087633;27;19931;-74
2023/12/05 13:30:16;;;;;;;;;;;3.60;99.90;;;;;;5092044;27;20199;-75
2023/12/05 13:32:42;;;;;;;;;;;1.60;99.90;;;;;;5086723;27;19938;-74
2023/12/05 13:35:08;;;;;;;;;;;1.60;99.90;;;;;;5086328;27;19938;-74
2023/12/05 13:37:34;;;;;;;;;;;1.60;99.90;;;;;;5083048;27;19927;-74
2023/12/05 13:40:00;;;;;;;;;;;1.60;99.90;;;;;;5058672;27;19942;-74
2023/12/05 13:42:26;;;;;;;;;;;1.80;99.90;;;;;;5093436;27;19958;-74
2023/12/05 13:44:52;;;;;;;;;;;2.60;99.90;;;;;;5098396;27;19931;-75
2023/12/05 13:47:17;;;;;;;;;;;1.60;99.90;;;;;;5107083;27;20431;-74
2023/12/05 13:49:43;;;;;;;;;;;2.80;99.90;;;;;;5107457;27;19927;-74
2023/12/05 13:52:08;;;;;;;;;;;1.90;99.90;;;;;;5093117;27;19919;-74
2023/12/05 13:54:34;;;;;;;;;;;1.70;99.90;;;;;;5104386;27;19932;-74
2023/12/05 13:57:00;;;;;;;;;;;1.60;99.90;;;;;;5094520;27;19934;-74
2023/12/05 13:59:25;;;;;;;;;;;1.90;99.90;;;;;;5106929;27;19928;-74
2023/12/05 14:01:51;;;;;;;;;;;1.70;99.90;;;;;;5104023;27;19960;-74
2023/12/05 14:04:17;;;;;;;;;;;1.20;99.90;;;;;;5107996;27;19957;-74
2023/12/05 14:06:43;;;;;;;;;;;1.90;99.90;;;;;;5109522;27;19923;-74
2023/12/05 14:09:09;;;;;;;;;;;1.60;99.90;;;;;;5099555;27;19927;-74
2023/12/05 14:11:35;;;;;;;;;;;1.60;99.90;;;;;;5099747;27;19927;-74
2023/12/05 14:14:05;;;;;;;;;;;1.60;99.90;;;;;;5105578;27;19934;-74
2023/12/05 14:16:31;;;;;;;;;;;1.60;99.90;;;;;;5096860;27;19927;-74
2023/12/05 14:18:56;;;;;;;;;;;1.80;99.90;;;;;;5108548;27;19931;-74
2023/12/05 14:21:22;;;;;;;;;;;1.50;99.90;;;;;;5106349;27;20262;-75
2023/12/05 14:23:48;;;;;;;;;;;1.50;99.90;;;;;;5095695;27;19930;-74
2023/12/05 14:26:13;;;;;;;;;;;1.50;99.90;;;;;;5104149;27;19930;-74
2023/12/05 14:28:39;;;;;;;;;;;1.50;99.90;;;;;;5092005;27;19934;-73